createdAt,value
2019-06-18T00:00:31.350Z,4.73
2019-06-18T00:03:01.154Z,2.70
2019-06-18T00:05:31.103Z,2.70
2019-06-18T00:08:01.031Z,4.57
2019-06-18T00:10:30.779Z,4.43
2019-06-18T00:13:01.041Z,2.90
2019-06-18T00:15:41.867Z,4.37
2019-06-18T00:17:58.358Z,4.90
2019-06-18T00:20:26.262Z,5.73
2019-06-18T00:22:53.950Z,2.63
2019-06-18T00:25:21.644Z,6.60
2019-06-18T00:27:50.586Z,2.53
2019-06-18T00:30:20.142Z,3.40
2019-06-18T00:32:48.085Z,3.03
2019-06-18T00:35:15.946Z,4.47
2019-06-18T00:37:43.633Z,3.27
2019-06-18T00:40:16.539Z,4.00
2019-06-18T00:42:42.011Z,3.37
2019-06-18T00:45:10.055Z,3.40
2019-06-18T00:47:37.701Z,5.13
2019-06-18T00:50:07.142Z,3.50
2019-06-18T00:52:36.566Z,4.30
2019-06-18T00:55:04.530Z,4.30
2019-06-18T00:57:36.789Z,3.10
2019-06-18T01:00:07.210Z,3.73
2019-06-18T01:02:34.982Z,4.23
2019-06-18T01:05:02.891Z,4.40
2019-06-18T01:07:30.765Z,4.20
2019-06-18T01:09:58.974Z,4.70
2019-06-18T01:12:27.252Z,4.30
2019-06-18T01:14:57.128Z,5.00
2019-06-18T01:17:27.203Z,3.70
2019-06-18T01:19:56.618Z,3.73
2019-06-18T01:22:27.826Z,2.90
2019-06-18T01:24:54.257Z,4.10
2019-06-18T01:27:27.855Z,5.07
2019-06-18T01:29:55.835Z,4.10
2019-06-18T01:32:23.775Z,3.40
2019-06-18T01:34:53.618Z,2.80
2019-06-18T01:37:22.765Z,3.20
2019-06-18T01:39:52.572Z,4.80
2019-06-18T01:42:22.611Z,4.60
2019-06-18T01:44:52.799Z,5.17
2019-06-18T01:47:22.451Z,3.13
2019-06-18T01:49:49.356Z,3.30
2019-06-18T01:52:17.231Z,5.50
2019-06-18T01:54:45.081Z,3.13
2019-06-18T01:57:14.746Z,3.60
2019-06-18T01:59:42.342Z,3.00
2019-06-18T02:02:12.289Z,3.83
2019-06-18T02:04:39.833Z,4.33
2019-06-18T02:07:07.718Z,2.77
2019-06-18T02:09:35.426Z,3.03
2019-06-18T02:12:03.709Z,3.30
2019-06-18T02:14:32.961Z,3.77
2019-06-18T02:17:03.202Z,3.03
2019-06-18T02:19:32.404Z,3.73
2019-06-18T02:22:06.646Z,6.50
2019-06-18T02:24:30.198Z,5.00
2019-06-18T02:26:57.959Z,5.10
2019-06-18T02:29:25.825Z,3.47
2019-06-18T02:31:55.355Z,3.63
2019-06-18T02:34:23.280Z,4.27
2019-06-18T02:36:53.177Z,3.90
2019-06-18T02:39:22.396Z,3.93
2019-06-18T02:41:53.143Z,3.50
2019-06-18T02:44:23.396Z,4.40
2019-06-18T02:47:00.303Z,6.77
2019-06-18T02:49:22.191Z,3.80
2019-06-18T02:51:52.726Z,4.27
2019-06-18T02:54:19.904Z,3.27
2019-06-18T02:56:47.980Z,3.50
2019-06-18T02:59:16.047Z,5.10
2019-06-18T03:01:52.470Z,4.80
2019-06-18T03:04:20.108Z,4.20
2019-06-18T03:06:47.919Z,4.97
2019-06-18T03:09:15.820Z,5.23
2019-06-18T03:11:43.514Z,3.07
2019-06-18T03:14:13.138Z,5.07
2019-06-18T03:16:42.285Z,6.07
2019-06-18T03:19:12.824Z,6.20
2019-06-18T03:21:39.813Z,5.67
2019-06-18T03:24:07.665Z,5.87
2019-06-18T03:26:35.357Z,3.97
2019-06-18T03:29:03.148Z,4.37
2019-06-18T03:31:34.558Z,7.60
2019-06-18T03:34:05.173Z,6.00
2019-06-18T03:36:32.826Z,5.70
2019-06-18T03:39:02.634Z,4.73
2019-06-18T03:41:32.364Z,7.13
2019-06-18T03:44:00.032Z,4.77
2019-06-18T03:46:27.903Z,5.63
2019-06-18T03:48:55.604Z,6.07
2019-06-18T03:51:23.419Z,5.30
2019-06-18T03:53:53.412Z,5.00
2019-06-18T03:56:22.520Z,5.53
2019-06-18T03:58:52.271Z,5.30
2019-06-18T04:01:32.569Z,5.43
2019-06-18T04:04:02.667Z,6.90
2019-06-18T04:06:33.062Z,3.90
2019-06-18T04:09:02.235Z,6.90
2019-06-18T04:11:32.474Z,6.20
2019-06-18T04:14:00.008Z,7.10
2019-06-18T04:16:27.855Z,4.90
2019-06-18T04:18:55.562Z,5.70
2019-06-18T04:21:23.310Z,7.30
2019-06-18T04:23:52.484Z,4.60
2019-06-18T04:26:23.036Z,5.20
2019-06-18T04:28:50.829Z,4.67
2019-06-18T04:31:22.621Z,3.60
2019-06-18T04:33:49.541Z,4.90
2019-06-18T04:36:17.417Z,5.80
2019-06-18T04:38:46.224Z,5.63
2019-06-18T04:41:13.928Z,5.70
2019-06-18T04:43:43.867Z,4.77
2019-06-18T04:46:13.282Z,6.60
2019-06-18T04:48:42.826Z,4.60
2019-06-18T04:51:13.389Z,5.97
2019-06-18T04:53:42.942Z,6.60
2019-06-18T04:56:12.508Z,8.10
2019-06-18T04:58:43.164Z,5.07
2019-06-18T05:01:13.203Z,4.97
2019-06-18T05:03:43.049Z,4.63
2019-06-18T05:06:09.879Z,4.27
2019-06-18T05:08:37.681Z,6.00
2019-06-18T05:11:05.533Z,5.37
2019-06-18T05:13:33.605Z,4.90
2019-06-18T05:16:02.619Z,4.70
2019-06-18T05:18:39.485Z,6.93
2019-06-18T05:21:02.800Z,4.67
2019-06-18T05:23:32.944Z,6.50
2019-06-18T05:26:00.074Z,8.67
2019-06-18T05:28:27.999Z,5.53
2019-06-18T05:30:55.839Z,4.30
2019-06-18T05:33:23.707Z,4.50
2019-06-18T05:35:53.260Z,4.03
2019-06-18T05:38:23.290Z,3.47
2019-06-18T05:40:52.780Z,5.60
2019-06-18T05:43:22.716Z,4.00
2019-06-18T05:45:52.773Z,4.10
2019-06-18T05:48:22.875Z,4.60
2019-06-18T05:50:50.111Z,4.83
2019-06-18T05:53:22.390Z,3.20
2019-06-18T05:55:49.335Z,5.90
2019-06-18T05:58:17.270Z,4.43
2019-06-18T06:00:44.977Z,4.60
2019-06-18T06:03:13.314Z,4.37
2019-06-18T06:05:42.174Z,4.70
2019-06-18T06:08:10.437Z,3.83
2019-06-18T06:10:38.259Z,5.70
2019-06-18T06:13:06.119Z,4.03
2019-06-18T06:15:35.454Z,3.50
2019-06-18T06:18:03.853Z,5.33
2019-06-18T06:20:33.053Z,3.57
2019-06-18T06:23:03.239Z,4.30
2019-06-18T06:25:34.350Z,5.10
2019-06-18T06:28:03.011Z,3.40
2019-06-18T06:30:33.052Z,3.87
2019-06-18T06:33:00.228Z,5.10
2019-06-18T06:35:27.917Z,3.80
2019-06-18T06:37:55.592Z,5.03
2019-06-18T06:40:24.396Z,4.53
2019-06-18T06:42:53.575Z,6.13
2019-06-18T06:45:22.686Z,5.83
2019-06-18T06:47:52.916Z,5.23
2019-06-18T06:50:22.680Z,4.30
2019-06-18T06:52:52.965Z,5.00
2019-06-18T06:55:20.281Z,5.03
2019-06-18T06:57:48.028Z,4.57
2019-06-18T07:00:15.924Z,5.03
2019-06-18T07:02:43.934Z,3.70
2019-06-18T07:05:12.680Z,4.60
2019-06-18T07:07:43.300Z,5.33
2019-06-18T07:10:12.841Z,5.33
2019-06-18T07:12:40.565Z,5.10
2019-06-18T07:15:08.292Z,4.93
2019-06-18T07:17:36.109Z,4.83
2019-06-18T07:20:04.573Z,4.30
2019-06-18T07:22:33.489Z,5.40
2019-06-18T07:25:02.707Z,7.00
2019-06-18T07:27:33.520Z,4.77
2019-06-18T07:30:00.569Z,5.63
2019-06-18T07:32:30.357Z,4.20
2019-06-18T07:34:58.070Z,6.40
2019-06-18T07:37:25.780Z,5.57
2019-06-18T07:39:54.124Z,4.87
2019-06-18T07:42:23.321Z,5.47
2019-06-18T07:44:54.840Z,6.10
2019-06-18T07:47:22.887Z,6.83
2019-06-18T07:50:06.595Z,5.40
2019-06-18T07:52:22.422Z,6.63
2019-06-18T07:54:52.834Z,5.30
2019-06-18T07:57:20.416Z,5.17
2019-06-18T07:59:48.174Z,4.10
2019-06-18T08:02:15.858Z,5.10
2019-06-18T08:04:43.782Z,4.07
2019-06-18T08:07:14.494Z,5.93
2019-06-18T08:09:43.374Z,3.83
2019-06-18T08:12:12.765Z,4.90
2019-06-18T08:14:42.527Z,2.80
2019-06-18T08:17:12.442Z,4.40
2019-06-18T08:19:43.155Z,4.10
2019-06-18T08:22:16.837Z,3.03
2019-06-18T08:24:43.352Z,3.40
2019-06-18T08:27:12.393Z,3.97
2019-06-18T08:29:42.410Z,5.30
2019-06-18T08:32:10.012Z,4.87
2019-06-18T08:34:37.847Z,4.33
2019-06-18T08:37:05.648Z,3.77
2019-06-18T08:39:33.690Z,2.77
2019-06-18T08:42:02.865Z,3.83
2019-06-18T08:44:32.914Z,4.67
2019-06-18T08:47:02.978Z,2.87
2019-06-18T08:49:33.089Z,4.30
2019-06-18T08:52:02.507Z,3.70
2019-06-18T08:54:32.199Z,3.90
2019-06-18T08:56:59.654Z,3.53
2019-06-18T08:59:27.550Z,4.40
2019-06-18T09:01:55.288Z,2.70
2019-06-18T09:04:23.180Z,2.47
2019-06-18T09:06:53.484Z,3.83
2019-06-18T09:09:22.732Z,3.20
2019-06-18T09:11:52.431Z,4.43
2019-06-18T09:14:23.275Z,4.20
2019-06-18T09:16:52.471Z,5.00
2019-06-18T09:19:19.825Z,3.60
2019-06-18T09:21:47.542Z,3.60
2019-06-18T09:24:15.237Z,3.87
2019-06-18T09:26:43.331Z,4.27
2019-06-18T09:29:13.823Z,4.07
2019-06-18T09:31:42.988Z,4.60
2019-06-18T09:34:13.130Z,3.30
2019-06-18T09:36:43.184Z,2.70
2019-06-18T09:39:13.216Z,3.30
2019-06-18T09:41:39.819Z,2.93
2019-06-18T09:44:07.583Z,3.40
2019-06-18T09:46:35.396Z,2.57
2019-06-18T09:49:03.193Z,3.57
2019-06-18T09:51:33.097Z,3.73
2019-06-18T09:54:02.685Z,4.17
2019-06-18T09:56:30.406Z,2.93
2019-06-18T09:58:58.448Z,3.40
2019-06-18T10:01:26.976Z,3.60
2019-06-18T10:03:58.027Z,4.77
2019-06-18T10:06:26.185Z,4.23
2019-06-18T10:08:54.751Z,3.10
2019-06-18T10:11:23.308Z,3.20
2019-06-18T10:13:52.818Z,3.00
2019-06-18T10:16:23.068Z,3.00
2019-06-18T10:18:53.169Z,2.57
2019-06-18T10:21:32.949Z,2.73
2019-06-18T10:23:49.688Z,2.80
2019-06-18T10:26:17.535Z,2.40
2019-06-18T10:29:04.711Z,2.20
2019-06-18T10:31:16.425Z,2.40
2019-06-18T10:33:44.577Z,2.40
2019-06-18T10:36:12.844Z,2.20
2019-06-18T10:38:43.039Z,1.30
2019-06-18T10:41:13.249Z,2.10
2019-06-18T10:43:40.902Z,2.63
2019-06-18T10:46:08.881Z,2.90
2019-06-18T10:48:37.515Z,1.87
2019-06-18T10:51:06.215Z,1.57
2019-06-18T10:53:33.916Z,1.57
2019-06-18T10:56:03.196Z,2.33
2019-06-18T10:58:33.658Z,1.57
2019-06-18T11:01:02.818Z,2.30
2019-06-18T11:03:32.702Z,2.00
2019-06-18T11:06:02.794Z,2.37
2019-06-18T11:08:30.500Z,1.97
2019-06-18T11:10:59.652Z,1.90
2019-06-18T11:13:27.534Z,1.60
2019-06-18T11:15:56.715Z,1.80
2019-06-18T11:18:24.632Z,2.17
2019-06-18T11:20:52.956Z,1.70
2019-06-18T11:23:31.358Z,1.37
2019-06-18T11:25:52.358Z,3.03
2019-06-18T11:28:22.878Z,1.00
2019-06-18T11:30:50.006Z,1.00
2019-06-18T11:33:17.871Z,1.20
2019-06-18T11:35:45.618Z,1.63
2019-06-18T11:38:13.509Z,2.77
2019-06-18T11:40:42.455Z,2.20
2019-06-18T11:43:13.249Z,2.40
2019-06-18T11:45:42.847Z,1.77
2019-06-18T11:48:12.310Z,1.73
2019-06-18T11:50:39.869Z,3.53
2019-06-18T11:53:07.586Z,1.87
2019-06-18T11:55:35.328Z,1.30
2019-06-18T11:58:03.792Z,1.47
2019-06-18T12:00:31.756Z,1.73
2019-06-18T12:02:59.628Z,1.20
2019-06-18T12:05:29.623Z,1.43
2019-06-18T12:07:57.525Z,2.60
2019-06-18T12:10:26.652Z,1.47
2019-06-18T12:12:56.936Z,1.57
2019-06-18T12:15:24.536Z,1.33
2019-06-18T12:17:52.222Z,1.73
2019-06-18T12:20:21.549Z,2.30
2019-06-18T12:22:50.165Z,1.03
2019-06-18T12:25:18.946Z,1.70
2019-06-18T12:27:46.772Z,1.07
2019-06-18T12:30:14.834Z,1.87
2019-06-18T12:32:53.551Z,1.60
2019-06-18T12:35:13.077Z,1.30
2019-06-18T12:37:44.843Z,1.20
2019-06-18T12:40:13.466Z,1.20
2019-06-18T12:42:42.834Z,1.50
2019-06-18T12:45:12.772Z,1.20
2019-06-18T12:47:43.005Z,1.33
2019-06-18T12:50:13.900Z,1.73
2019-06-18T12:52:43.821Z,2.10
2019-06-18T12:55:12.853Z,1.10
2019-06-18T12:57:43.247Z,1.70
2019-06-18T13:00:11.042Z,1.77
2019-06-18T13:02:38.927Z,2.20
2019-06-18T13:05:07.032Z,1.43
2019-06-18T13:07:34.734Z,1.30
2019-06-18T13:10:04.197Z,1.50
2019-06-18T13:12:33.216Z,1.90
2019-06-18T13:15:01.202Z,1.47
2019-06-18T13:17:29.048Z,1.03
2019-06-18T13:19:56.775Z,1.23
2019-06-18T13:22:27.660Z,1.50
2019-06-18T13:25:00.848Z,1.17
2019-06-18T13:27:25.233Z,0.90
2019-06-18T13:29:53.879Z,1.20
2019-06-18T13:32:22.772Z,1.17
2019-06-18T13:34:52.910Z,1.30
2019-06-18T13:37:22.945Z,3.23
2019-06-18T13:39:50.575Z,1.20
2019-06-18T13:42:18.591Z,1.20
2019-06-18T13:44:46.335Z,1.17
2019-06-18T13:47:14.040Z,1.43
2019-06-18T13:49:42.689Z,1.27
2019-06-18T13:52:13.304Z,1.30
2019-06-18T13:54:43.260Z,1.67
2019-06-18T13:57:13.556Z,1.30
2019-06-18T13:59:42.902Z,1.23
2019-06-18T14:02:13.178Z,1.23
2019-06-18T14:04:42.658Z,1.70
2019-06-18T14:07:09.999Z,1.40
2019-06-18T14:09:37.776Z,1.40
2019-06-18T14:12:05.497Z,1.23
2019-06-18T14:14:33.491Z,1.77
2019-06-18T14:17:03.064Z,1.33
2019-06-18T14:19:32.927Z,1.73
2019-06-18T14:22:03.757Z,1.10
2019-06-18T14:24:53.611Z,1.97
2019-06-18T14:27:27.051Z,1.60
2019-06-18T14:29:53.087Z,1.80
2019-06-18T14:32:24.462Z,1.73
2019-06-18T14:34:52.777Z,1.40
2019-06-18T14:37:22.896Z,1.43
2019-06-18T14:39:52.272Z,1.10
2019-06-18T14:42:22.820Z,2.30
2019-06-18T14:44:52.825Z,1.37
2019-06-18T14:47:20.076Z,1.27
2019-06-18T14:49:47.817Z,1.40
2019-06-18T14:52:15.809Z,1.50
2019-06-18T14:54:43.604Z,1.23
2019-06-18T14:57:12.810Z,1.20
2019-06-18T14:59:43.526Z,1.20
2019-06-18T15:02:12.873Z,1.37
2019-06-18T15:04:43.437Z,2.10
2019-06-18T15:07:10.755Z,1.20
2019-06-18T15:09:38.590Z,1.40
2019-06-18T15:12:06.458Z,1.20
2019-06-18T15:14:34.264Z,1.67
2019-06-18T15:17:03.054Z,1.83
2019-06-18T15:19:33.261Z,1.20
2019-06-18T15:22:03.806Z,1.80
2019-06-18T15:24:42.413Z,1.23
2019-06-18T15:27:00.770Z,1.50
2019-06-18T15:29:28.742Z,1.10
2019-06-18T15:31:57.922Z,1.87
2019-06-18T15:34:25.838Z,1.23
2019-06-18T15:36:53.744Z,1.67
2019-06-18T15:39:27.681Z,1.40
2019-06-18T15:41:55.746Z,1.30
2019-06-18T15:44:23.681Z,1.13
2019-06-18T15:46:52.972Z,1.30
2019-06-18T15:49:23.427Z,1.43
2019-06-18T15:51:53.183Z,1.20
2019-06-18T15:54:21.295Z,1.23
2019-06-18T15:56:49.082Z,1.33
2019-06-18T15:59:16.921Z,1.30
2019-06-18T16:01:44.764Z,1.10
2019-06-18T16:04:14.035Z,1.30
2019-06-18T16:06:45.749Z,1.30
2019-06-18T16:09:12.717Z,2.23
2019-06-18T16:11:43.018Z,1.70
2019-06-18T16:14:10.802Z,1.60
2019-06-18T16:16:39.844Z,1.77
2019-06-18T16:19:07.897Z,1.40
2019-06-18T16:21:36.068Z,1.53
2019-06-18T16:24:04.298Z,1.20
2019-06-18T16:26:32.322Z,1.60
2019-06-18T16:29:02.644Z,2.03
2019-06-18T16:31:33.329Z,1.67
2019-06-18T16:34:02.990Z,1.53
2019-06-18T16:36:32.769Z,1.40
2019-06-18T16:39:03.238Z,1.63
2019-06-18T16:41:32.542Z,1.40
2019-06-18T16:44:02.749Z,1.80
2019-06-18T16:46:33.196Z,1.27
2019-06-18T16:49:03.566Z,1.77
2019-06-18T16:51:32.783Z,1.30
2019-06-18T16:54:03.545Z,1.93
2019-06-18T16:56:33.121Z,1.33
2019-06-18T16:59:02.309Z,1.43
2019-06-18T17:01:33.361Z,1.20
2019-06-18T17:04:03.191Z,1.73
2019-06-18T17:06:33.443Z,1.40
2019-06-18T17:09:01.390Z,1.23
2019-06-18T17:11:29.269Z,1.17
2019-06-18T17:13:57.183Z,1.53
2019-06-18T17:16:25.405Z,1.63
2019-06-18T17:18:53.902Z,1.23
2019-06-18T17:21:21.787Z,1.40
2019-06-18T17:23:49.653Z,1.60
2019-06-18T17:26:33.249Z,1.47
2019-06-18T17:28:49.701Z,1.30
2019-06-18T17:31:17.956Z,1.20
2019-06-18T17:33:45.896Z,1.43
2019-06-18T17:36:14.922Z,2.03
2019-06-18T17:38:44.558Z,1.70
2019-06-18T17:41:14.255Z,1.90
2019-06-18T17:43:55.377Z,1.60
2019-06-18T17:46:15.509Z,1.30
2019-06-18T17:48:43.858Z,3.30
2019-06-18T17:51:13.040Z,2.17
2019-06-18T17:53:42.241Z,1.73
2019-06-18T17:56:13.485Z,1.60
2019-06-18T17:58:41.583Z,1.43
2019-06-18T18:01:09.330Z,2.17
2019-06-18T18:03:37.197Z,2.40
2019-06-18T18:06:05.170Z,3.70
2019-06-18T18:08:32.895Z,1.40
2019-06-18T18:11:03.058Z,1.53
2019-06-18T18:13:33.440Z,1.37
2019-06-18T18:16:02.922Z,1.70
2019-06-18T18:18:30.301Z,1.60
2019-06-18T18:21:03.545Z,1.50
2019-06-18T18:23:30.844Z,2.47
2019-06-18T18:26:18.256Z,1.40
2019-06-18T18:28:32.907Z,1.70
2019-06-18T18:31:03.450Z,1.47
2019-06-18T18:33:32.402Z,2.00
2019-06-18T18:36:02.729Z,1.37
2019-06-18T18:38:32.440Z,1.50
2019-06-18T18:41:03.102Z,1.70
2019-06-18T18:43:30.170Z,1.23
2019-06-18T18:45:57.922Z,1.30
2019-06-18T18:48:26.150Z,1.47
2019-06-18T18:50:56.837Z,1.67
2019-06-18T18:53:25.170Z,1.43
2019-06-18T18:55:53.070Z,1.30
2019-06-18T18:58:38.970Z,2.90
2019-06-18T19:01:07.774Z,1.80
2019-06-18T19:03:35.733Z,2.80
2019-06-18T19:06:04.080Z,3.60
2019-06-18T19:08:33.055Z,1.60
2019-06-18T19:11:02.639Z,3.90
2019-06-18T19:13:32.831Z,1.70
2019-06-18T19:16:02.923Z,1.50
2019-06-18T19:18:33.203Z,1.40
2019-06-18T19:21:03.127Z,3.20
2019-06-18T19:23:31.558Z,3.20
2019-06-18T19:25:59.561Z,2.53
2019-06-18T19:28:32.437Z,2.20
2019-06-18T19:31:03.195Z,2.43
2019-06-18T19:33:32.662Z,2.40
2019-06-18T19:36:03.113Z,2.30
2019-06-18T19:38:32.311Z,2.13
2019-06-18T19:41:00.437Z,2.47
2019-06-18T19:43:29.628Z,2.93
2019-06-18T19:45:59.766Z,2.13
2019-06-18T19:48:27.711Z,3.03
2019-06-18T19:50:56.038Z,3.33
2019-06-18T19:53:23.949Z,2.80
2019-06-18T19:55:54.540Z,2.80
2019-06-18T19:58:24.318Z,3.67
2019-06-18T20:00:52.745Z,4.67
2019-06-18T20:03:22.780Z,3.50
2019-06-18T20:05:52.511Z,3.73
2019-06-18T20:08:22.908Z,3.27
2019-06-18T20:10:50.193Z,3.27
2019-06-18T20:13:19.155Z,3.10
2019-06-18T20:15:47.214Z,4.10
2019-06-18T20:18:15.100Z,4.50
2019-06-18T20:20:43.199Z,3.23
2019-06-18T20:23:11.250Z,3.40
2019-06-18T20:25:43.028Z,3.20
2019-06-18T20:28:12.248Z,3.70
2019-06-18T20:30:43.005Z,4.27
2019-06-18T20:33:10.160Z,3.53
2019-06-18T20:35:38.217Z,4.03
2019-06-18T20:38:06.401Z,4.23
2019-06-18T20:40:34.266Z,3.70
2019-06-18T20:43:03.629Z,3.17
2019-06-18T20:45:33.070Z,4.00
2019-06-18T20:48:01.138Z,3.87
2019-06-18T20:50:29.060Z,5.07
2019-06-18T20:52:57.114Z,4.47
2019-06-18T20:55:25.154Z,4.97
2019-06-18T20:57:54.289Z,4.63
2019-06-18T21:00:24.440Z,3.60
2019-06-18T21:02:52.355Z,3.50
2019-06-18T21:05:22.477Z,4.23
2019-06-18T21:07:52.721Z,5.77
2019-06-18T21:10:20.113Z,4.27
2019-06-18T21:12:48.157Z,3.87
2019-06-18T21:15:16.402Z,4.27
2019-06-18T21:17:46.343Z,5.70
2019-06-18T21:20:14.929Z,4.40
2019-06-18T21:22:43.024Z,4.80
2019-06-18T21:25:13.711Z,4.90
2019-06-18T21:27:48.372Z,5.03
2019-06-18T21:30:13.694Z,4.33
2019-06-18T21:32:43.145Z,4.10
2019-06-18T21:35:14.737Z,5.67
2019-06-18T21:37:45.610Z,4.73
2019-06-18T21:40:17.700Z,5.53
2019-06-18T21:42:45.966Z,4.33
2019-06-18T21:45:15.912Z,5.47
2019-06-18T21:47:44.138Z,4.23
2019-06-18T21:50:13.338Z,4.03
2019-06-18T21:52:42.677Z,4.20
2019-06-18T21:55:13.297Z,5.00
2019-06-18T21:57:43.195Z,4.13
2019-06-18T22:00:17.321Z,5.03
2019-06-18T22:02:45.179Z,3.27
2019-06-18T22:05:14.428Z,6.63
2019-06-18T22:07:43.885Z,5.03
2019-06-18T22:10:13.100Z,4.57
2019-06-18T22:12:43.192Z,4.50
2019-06-18T22:15:12.993Z,4.77
2019-06-18T22:17:42.712Z,5.90
2019-06-18T22:20:14.374Z,5.93
2019-06-18T22:22:42.528Z,5.70
2019-06-18T22:25:12.399Z,5.33
2019-06-18T22:27:42.617Z,4.70
2019-06-18T22:30:13.603Z,6.27
2019-06-18T22:32:43.303Z,4.70
2019-06-18T22:35:12.920Z,5.00
2019-06-18T22:37:43.214Z,6.00
2019-06-18T22:40:12.426Z,5.23
2019-06-18T22:42:42.684Z,5.70
2019-06-18T22:45:12.381Z,4.37
2019-06-18T22:47:43.144Z,5.40
2019-06-18T22:50:13.478Z,5.87
2019-06-18T22:52:42.403Z,4.77
2019-06-18T22:55:13.174Z,5.30
2019-06-18T22:57:46.560Z,6.33
2019-06-18T23:00:14.969Z,5.40
2019-06-18T23:02:44.189Z,3.90
2019-06-18T23:05:16.185Z,4.83
2019-06-18T23:07:45.885Z,6.27
2019-06-18T23:10:17.196Z,5.03
2019-06-18T23:12:45.308Z,4.20
2019-06-18T23:15:15.365Z,4.33
2019-06-18T23:17:44.625Z,5.07
2019-06-18T23:20:12.657Z,5.20
2019-06-18T23:22:43.270Z,5.60
2019-06-18T23:25:12.815Z,4.93
2019-06-18T23:27:43.446Z,7.90
2019-06-18T23:30:13.677Z,4.70
2019-06-18T23:32:43.199Z,5.63
2019-06-18T23:35:17.659Z,6.33
2019-06-18T23:37:46.812Z,5.27
2019-06-18T23:40:15.020Z,5.10
2019-06-18T23:42:43.879Z,4.40
2019-06-18T23:45:12.645Z,4.03
2019-06-18T23:47:42.869Z,5.80
2019-06-18T23:50:12.604Z,7.50
2019-06-18T23:52:41.002Z,5.20
2019-06-18T23:55:12.581Z,4.87
2019-06-18T23:57:40.402Z,4.90
